sensor_id;sensor_type;location;lat;lon;timestamp;pressure;altitude;pressure_sealevel;temperature;humidity
58753;BME280;44525;46.052;13.610;2023-03-16T05:43:06;101175.13;;;0.59;84.96
58753;BME280;44525;46.052;13.610;2023-03-16T05:45:31;101172.06;;;0.62;85.90
58753;BME280;44525;46.052;13.610;2023-03-16T05:47:57;101175.34;;;0.57;86.37
58753;BME280;44525;46.052;13.610;2023-03-16T05:50:23;101176.91;;;0.31;87.28
58753;BME280;44525;46.052;13.610;2023-03-16T05:52:50;101184.88;;;0.25;87.68
58753;BME280;44525;46.052;13.610;2023-03-16T05:55:16;101182.34;;;0.65;84.75
58753;BME280;44525;46.052;13.610;2023-03-16T05:57:42;101189.78;;;0.76;85.16
58753;BME280;44525;46.052;13.610;2023-03-16T06:00:10;101183.41;;;0.77;83.65
58753;BME280;44525;46.052;13.610;2023-03-16T06:02:39;101181.09;;;0.54;83.93
58753;BME280;44525;46.052;13.610;2023-03-16T06:05:04;101184.41;;;0.56;83.10
58753;BME280;44525;46.052;13.610;2023-03-16T06:07:31;101189.13;;;0.67;83.28
58753;BME280;44525;46.052;13.610;2023-03-16T06:09:57;101199.06;;;0.94;82.83
58753;BME280;44525;46.052;13.610;2023-03-16T06:12:22;101205.78;;;0.56;85.88
58753;BME280;44525;46.052;13.610;2023-03-16T06:14:47;101208.94;;;0.86;85.34
58753;BME280;44525;46.052;13.610;2023-03-16T06:17:13;101213.63;;;0.71;85.84
58753;BME280;44525;46.052;13.610;2023-03-16T06:19:38;101223.56;;;0.91;81.62
58753;BME280;44525;46.052;13.610;2023-03-16T06:22:04;101227.28;;;0.96;79.98
58753;BME280;44525;46.052;13.610;2023-03-16T06:24:29;101232.47;;;1.38;79.23
58753;BME280;44525;46.052;13.610;2023-03-16T06:26:55;101235.75;;;1.53;78.36
58753;BME280;44525;46.052;13.610;2023-03-16T06:29:20;101234.53;;;1.76;77.55
58753;BME280;44525;46.052;13.610;2023-03-16T06:31:46;101234.28;;;1.98;75.41
58753;BME280;44525;46.052;13.610;2023-03-16T06:34:11;101235.00;;;2.38;73.18
58753;BME280;44525;46.052;13.610;2023-03-16T06:36:36;101233.59;;;2.29;72.80
58753;BME280;44525;46.052;13.610;2023-03-16T06:39:04;101235.50;;;2.67;70.96
58753;BME280;44525;46.052;13.610;2023-03-16T06:41:30;101247.63;;;2.76;72.07
58753;BME280;44525;46.052;13.610;2023-03-16T06:43:55;101238.25;;;3.24;70.74
58753;BME280;44525;46.052;13.610;2023-03-16T06:46:21;101250.66;;;3.76;70.33
58753;BME280;44525;46.052;13.610;2023-03-16T06:48:46;101247.94;;;4.01;67.96
58753;BME280;44525;46.052;13.610;2023-03-16T06:51:12;101260.81;;;4.17;62.86
58753;BME280;44525;46.052;13.610;2023-03-16T06:53:37;101252.16;;;4.52;64.43
58753;BME280;44525;46.052;13.610;2023-03-16T06:56:03;101262.47;;;4.55;62.43
58753;BME280;44525;46.052;13.610;2023-03-16T06:58:28;101254.31;;;4.62;63.44
58753;BME280;44525;46.052;13.610;2023-03-16T07:00:55;101258.66;;;4.94;59.62
58753;BME280;44525;46.052;13.610;2023-03-16T07:03:20;101251.66;;;5.35;61.04
58753;BME280;44525;46.052;13.610;2023-03-16T07:05:46;101258.75;;;5.95;58.48
58753;BME280;44525;46.052;13.610;2023-03-16T07:08:12;101253.81;;;6.27;54.67
58753;BME280;44525;46.052;13.610;2023-03-16T07:10:39;101252.75;;;7.10;54.84
58753;BME280;44525;46.052;13.610;2023-03-16T07:13:04;101249.09;;;7.50;51.47
58753;BME280;44525;46.052;13.610;2023-03-16T07:15:30;101251.06;;;7.88;50.67
58753;BME280;44525;46.052;13.610;2023-03-16T07:17:55;101248.75;;;8.36;48.80
58753;BME280;44525;46.052;13.610;2023-03-16T07:20:20;101245.03;;;8.42;48.29
58753;BME280;44525;46.052;13.610;2023-03-16T07:22:46;65501.63;;;-149.14;100.00
58753;BME280;44525;46.052;13.610;2023-03-16T07:25:12;65501.63;;;-149.14;100.00
58753;BME280;44525;46.052;13.610;2023-03-16T07:27:38;65501.63;;;-149.14;100.00
58753;BME280;44525;46.052;13.610;2023-03-16T07:30:06;65501.63;;;-149.14;100.00
58753;BME280;44525;46.052;13.610;2023-03-16T07:32:31;65501.63;;;-149.14;100.00
58753;BME280;44525;46.052;13.610;2023-03-16T07:34:57;65501.63;;;-149.14;100.00
58753;BME280;44525;46.052;13.610;2023-03-16T07:37:24;65501.63;;;-149.14;100.00
58753;BME280;44525;46.052;13.610;2023-03-16T07:39:49;65501.63;;;-149.14;100.00
58753;BME280;44525;46.052;13.610;2023-03-16T07:42:16;65501.63;;;-149.14;100.00
58753;BME280;44525;46.052;13.610;2023-03-16T07:44:41;65501.63;;;-149.14;100.00
58753;BME280;44525;46.052;13.610;2023-03-16T07:47:06;65501.63;;;-149.14;100.00
58753;BME280;44525;46.052;13.610;2023-03-16T07:49:32;65501.63;;;-149.14;100.00
58753;BME280;44525;46.052;13.610;2023-03-16T07:51:57;65501.63;;;-149.14;100.00
58753;BME280;44525;46.052;13.610;2023-03-16T07:54:23;65501.63;;;-149.14;100.00
58753;BME280;44525;46.052;13.610;2023-03-16T07:56:48;65501.63;;;-149.14;100.00
58753;BME280;44525;46.052;13.610;2023-03-16T07:59:14;65501.63;;;-149.14;100.00
58753;BME280;44525;46.052;13.610;2023-03-16T08:01:39;65501.63;;;-149.14;100.00
58753;BME280;44525;46.052;13.610;2023-03-16T08:04:05;65501.63;;;-149.14;100.00
58753;BME280;44525;46.052;13.610;2023-03-16T08:06:31;65501.63;;;-149.14;100.00
58753;BME280;44525;46.052;13.610;2023-03-16T08:08:56;65501.63;;;-149.14;100.00
58753;BME280;44525;46.052;13.610;2023-03-16T08:11:22;65501.63;;;-149.14;100.00
58753;BME280;44525;46.052;13.610;2023-03-16T08:13:50;65501.63;;;-149.14;100.00
58753;BME280;44525;46.052;13.610;2023-03-16T08:16:22;65501.63;;;-149.14;100.00
58753;BME280;44525;46.052;13.610;2023-03-16T08:18:48;65501.63;;;-149.14;100.00
58753;BME280;44525;46.052;13.610;2023-03-16T08:21:15;65501.63;;;-149.14;100.00
58753;BME280;44525;46.052;13.610;2023-03-16T08:23:41;65501.63;;;-149.14;100.00
58753;BME280;44525;46.052;13.610;2023-03-16T08:26:14;65501.63;;;-149.14;100.00
58753;BME280;44525;46.052;13.610;2023-03-16T08:28:41;65501.63;;;-149.14;100.00
58753;BME280;44525;46.052;13.610;2023-03-16T08:31:07;65501.63;;;-149.14;100.00
58753;BME280;44525;46.052;13.610;2023-03-16T08:35:59;65501.63;;;-149.14;100.00
58753;BME280;44525;46.052;13.610;2023-03-16T08:38:24;65501.63;;;-149.14;100.00
58753;BME280;44525;46.052;13.610;2023-03-16T08:40:50;65501.63;;;-149.14;100.00
58753;BME280;44525;46.052;13.610;2023-03-16T08:43:17;65501.63;;;-149.14;100.00
58753;BME280;44525;46.052;13.610;2023-03-16T08:45:47;65501.63;;;-149.14;100.00
58753;BME280;44525;46.052;13.610;2023-03-16T08:48:13;65501.63;;;-149.14;100.00
58753;BME280;44525;46.052;13.610;2023-03-16T08:50:42;65501.63;;;18.45;100.00
58753;BME280;44525;46.052;13.610;2023-03-16T08:53:09;65501.63;;;-149.14;100.00
58753;BME280;44525;46.052;13.610;2023-03-16T08:55:34;65501.63;;;-149.14;100.00
58753;BME280;44525;46.052;13.610;2023-03-16T08:58:01;65501.63;;;-149.14;100.00
58753;BME280;44525;46.052;13.610;2023-03-16T09:00:27;65501.63;;;19.38;100.00
58753;BME280;44525;46.052;13.610;2023-03-16T09:02:53;65501.63;;;-149.14;100.00
58753;BME280;44525;46.052;13.610;2023-03-16T09:05:20;65501.63;;;-149.14;100.00
58753;BME280;44525;46.052;13.610;2023-03-16T09:07:45;65501.63;;;19.37;100.00
58753;BME280;44525;46.052;13.610;2023-03-16T09:10:11;65501.63;;;-149.14;100.00
58753;BME280;44525;46.052;13.610;2023-03-16T09:12:43;65501.63;;;-149.14;100.00
58753;BME280;44525;46.052;13.610;2023-03-16T09:15:10;65501.63;;;-149.14;100.00
58753;BME280;44525;46.052;13.610;2023-03-16T09:17:37;65501.63;;;-149.14;100.00
58753;BME280;44525;46.052;13.610;2023-03-16T09:20:04;65501.63;;;-149.14;100.00
58753;BME280;44525;46.052;13.610;2023-03-16T09:22:33;65501.63;;;-149.14;100.00
58753;BME280;44525;46.052;13.610;2023-03-16T09:24:59;65501.63;;;-149.14;100.00
58753;BME280;44525;46.052;13.610;2023-03-16T09:27:25;65501.63;;;17.86;100.00
58753;BME280;44525;46.052;13.610;2023-03-16T09:29:50;65501.63;;;-149.14;100.00
58753;BME280;44525;46.052;13.610;2023-03-16T09:32:17;65501.63;;;-149.14;100.00
58753;BME280;44525;46.052;13.610;2023-03-16T09:34:42;65501.63;;;-149.14;100.00
58753;BME280;44525;46.052;13.610;2023-03-16T09:37:09;65501.63;;;-149.14;100.00
58753;BME280;44525;46.052;13.610;2023-03-16T09:39:34;65501.63;;;-149.14;100.00
58753;BME280;44525;46.052;13.610;2023-03-16T09:42:37;65501.63;;;-149.14;100.00
58753;BME280;44525;46.052;13.610;2023-03-16T09:47:33;65501.63;;;17.83;100.00
58753;BME280;44525;46.052;13.610;2023-03-16T09:50:07;65501.63;;;-149.14;100.00
58753;BME280;44525;46.052;13.610;2023-03-16T09:52:54;65501.63;;;-149.14;100.00
58753;BME280;44525;46.052;13.610;2023-03-16T09:57:58;65501.63;;;-149.14;100.00
58753;BME280;44525;46.052;13.610;2023-03-16T10:00:29;65501.63;;;-149.14;100.00
58753;BME280;44525;46.052;13.610;2023-03-16T10:05:28;65501.63;;;-149.14;100.00
58753;BME280;44525;46.052;13.610;2023-03-16T10:10:34;65501.63;;;-149.14;100.00
58753;BME280;44525;46.052;13.610;2023-03-16T10:13:15;65501.63;;;-149.14;100.00
58753;BME280;44525;46.052;13.610;2023-03-16T10:15:42;65501.63;;;-149.14;100.00
58753;BME280;44525;46.052;13.610;2023-03-16T10:18:15;65501.63;;;-149.14;100.00
58753;BME280;44525;46.052;13.610;2023-03-16T10:20:42;65501.63;;;-149.14;100.00
58753;BME280;44525;46.052;13.610;2023-03-16T10:23:19;65501.63;;;-149.14;100.00
58753;BME280;44525;46.052;13.610;2023-03-16T10:25:48;65501.63;;;-149.14;100.00
58753;BME280;44525;46.052;13.610;2023-03-16T10:28:17;65501.63;;;-149.14;100.00
58753;BME280;44525;46.052;13.610;2023-03-16T10:30:43;65501.63;;;-149.14;100.00
58753;BME280;44525;46.052;13.610;2023-03-16T10:33:32;65501.63;;;-149.14;100.00
58753;BME280;44525;46.052;13.610;2023-03-16T10:36:15;65501.63;;;-149.14;100.00
58753;BME280;44525;46.052;13.610;2023-03-16T10:38:49;65501.63;;;-149.14;100.00
58753;BME280;44525;46.052;13.610;2023-03-16T10:41:20;65501.63;;;-149.14;100.00
58753;BME280;44525;46.052;13.610;2023-03-16T10:43:54;65501.63;;;-149.14;100.00
58753;BME280;44525;46.052;13.610;2023-03-16T10:46:22;65501.63;;;-149.14;100.00
58753;BME280;44525;46.052;13.610;2023-03-16T10:49:56;65501.63;;;-149.14;100.00
58753;BME280;44525;46.052;13.610;2023-03-16T10:51:59;65501.63;;;-149.14;100.00
58753;BME280;44525;46.052;13.610;2023-03-16T10:54:39;65501.63;;;-149.14;100.00
58753;BME280;44525;46.052;13.610;2023-03-16T10:57:23;65501.63;;;-149.14;100.00
58753;BME280;44525;46.052;13.610;2023-03-16T10:59:51;65501.63;;;-149.14;100.00
58753;BME280;44525;46.052;13.610;2023-03-16T11:02:20;65501.63;;;-149.14;100.00
58753;BME280;44525;46.052;13.610;2023-03-16T11:04:48;65501.63;;;-149.14;100.00
58753;BME280;44525;46.052;13.610;2023-03-16T11:07:16;65501.63;;;-149.14;100.00
58753;BME280;44525;46.052;13.610;2023-03-16T11:09:43;65501.63;;;-149.14;100.00
58753;BME280;44525;46.052;13.610;2023-03-16T11:12:26;65501.63;;;15.94;100.00
58753;BME280;44525;46.052;13.610;2023-03-16T11:15:00;65501.63;;;-149.14;100.00
58753;BME280;44525;46.052;13.610;2023-03-16T11:17:38;65501.63;;;-149.14;100.00
58753;BME280;44525;46.052;13.610;2023-03-16T11:20:16;65501.63;;;-149.14;100.00
58753;BME280;44525;46.052;13.610;2023-03-16T11:22:44;65501.63;;;-149.14;100.00
58753;BME280;44525;46.052;13.610;2023-03-16T11:25:23;65501.63;;;-149.14;100.00
58753;BME280;44525;46.052;13.610;2023-03-16T11:33:01;65501.63;;;-149.14;100.00
58753;BME280;44525;46.052;13.610;2023-03-16T11:41:02;65501.63;;;-149.14;100.00
58753;BME280;44525;46.052;13.610;2023-03-16T11:43:38;65501.63;;;-149.14;100.00
58753;BME280;44525;46.052;13.610;2023-03-16T11:54:44;65501.63;;;-149.14;100.00
58753;BME280;44525;46.052;13.610;2023-03-16T12:03:25;65501.63;;;-149.14;100.00
58753;BME280;44525;46.052;13.610;2023-03-16T12:11:09;65501.63;;;-149.14;100.00
58753;BME280;44525;46.052;13.610;2023-03-16T12:16:18;65501.63;;;-149.14;100.00
58753;BME280;44525;46.052;13.610;2023-03-16T12:18:51;65501.63;;;-149.14;100.00
58753;BME280;44525;46.052;13.610;2023-03-16T12:23:53;65501.63;;;-149.14;100.00
58753;BME280;44525;46.052;13.610;2023-03-16T12:26:21;65501.63;;;-149.14;100.00
58753;BME280;44525;46.052;13.610;2023-03-16T12:28:49;65501.63;;;-149.14;100.00
58753;BME280;44525;46.052;13.610;2023-03-16T12:31:19;65501.63;;;-149.14;100.00
58753;BME280;44525;46.052;13.610;2023-03-16T12:39:06;65501.63;;;-149.14;100.00
58753;BME280;44525;46.052;13.610;2023-03-16T12:47:00;65501.63;;;-149.14;100.00
58753;BME280;44525;46.052;13.610;2023-03-16T12:49:33;65501.63;;;-149.14;100.00
58753;BME280;44525;46.052;13.610;2023-03-16T12:52:06;65501.63;;;-149.14;100.00
58753;BME280;44525;46.052;13.610;2023-03-16T12:54:32;65501.63;;;-149.14;100.00
58753;BME280;44525;46.052;13.610;2023-03-16T12:57:03;65501.63;;;-149.14;100.00
58753;BME280;44525;46.052;13.610;2023-03-16T12:59:38;65501.63;;;-149.14;100.00
58753;BME280;44525;46.052;13.610;2023-03-16T13:02:14;65501.63;;;-149.14;100.00
58753;BME280;44525;46.052;13.610;2023-03-16T13:04:43;65501.63;;;-149.14;100.00
58753;BME280;44525;46.052;13.610;2023-03-16T13:07:17;65501.63;;;-149.14;100.00
58753;BME280;44525;46.052;13.610;2023-03-16T13:09:48;65501.63;;;-149.14;100.00
58753;BME280;44525;46.052;13.610;2023-03-16T13:14:48;65501.63;;;-149.14;100.00
58753;BME280;44525;46.052;13.610;2023-03-16T13:19:57;65501.63;;;-149.14;100.00
58753;BME280;44525;46.052;13.610;2023-03-16T13:22:50;65501.63;;;-149.14;100.00
58753;BME280;44525;46.052;13.610;2023-03-16T13:27:57;65501.63;;;-149.14;100.00
58753;BME280;44525;46.052;13.610;2023-03-16T13:30:24;65501.63;;;-149.14;100.00
58753;BME280;44525;46.052;13.610;2023-03-16T13:32:54;65501.63;;;-149.14;100.00
58753;BME280;44525;46.052;13.610;2023-03-16T13:35:24;65501.63;;;-149.14;100.00
58753;BME280;44525;46.052;13.610;2023-03-16T13:37:51;65501.63;;;-149.14;100.00
58753;BME280;44525;46.052;13.610;2023-03-16T13:40:25;65501.63;;;20.77;100.00
58753;BME280;44525;46.052;13.610;2023-03-16T13:42:52;65501.63;;;-149.14;100.00
58753;BME280;44525;46.052;13.610;2023-03-16T13:45:33;65501.63;;;-149.14;100.00
58753;BME280;44525;46.052;13.610;2023-03-16T13:48:01;65501.63;;;-149.14;100.00
58753;BME280;44525;46.052;13.610;2023-03-16T13:50:31;65501.63;;;103.74;100.00
58753;BME280;44525;46.052;13.610;2023-03-16T13:53:00;65501.63;;;-149.14;100.00
58753;BME280;44525;46.052;13.610;2023-03-16T13:55:34;65501.63;;;-149.14;100.00
58753;BME280;44525;46.052;13.610;2023-03-16T13:58:01;65501.63;;;-149.14;100.00
58753;BME280;44525;46.052;13.610;2023-03-16T14:00:34;65501.63;;;-149.14;100.00
58753;BME280;44525;46.052;13.610;2023-03-16T14:03:10;65501.63;;;-149.14;100.00
58753;BME280;44525;46.052;13.610;2023-03-16T14:05:38;65501.63;;;-149.14;100.00
58753;BME280;44525;46.052;13.610;2023-03-16T14:08:14;65501.63;;;19.37;100.00
58753;BME280;44525;46.052;13.610;2023-03-16T14:10:41;65501.63;;;-149.14;100.00
58753;BME280;44525;46.052;13.610;2023-03-16T14:13:20;65501.63;;;-149.14;100.00
58753;BME280;44525;46.052;13.610;2023-03-16T14:15:46;65501.63;;;-149.14;100.00
58753;BME280;44525;46.052;13.610;2023-03-16T14:18:13;65501.63;;;-149.14;100.00
58753;BME280;44525;46.052;13.610;2023-03-16T14:20:40;65501.63;;;-149.14;100.00
58753;BME280;44525;46.052;13.610;2023-03-16T14:23:16;65501.63;;;-149.14;100.00
58753;BME280;44525;46.052;13.610;2023-03-16T14:25:42;65501.63;;;-149.14;100.00
58753;BME280;44525;46.052;13.610;2023-03-16T14:28:14;65501.63;;;-149.14;100.00
58753;BME280;44525;46.052;13.610;2023-03-16T14:30:49;65501.63;;;-149.14;100.00
58753;BME280;44525;46.052;13.610;2023-03-16T14:35:57;65501.63;;;-149.14;100.00
58753;BME280;44525;46.052;13.610;2023-03-16T14:38:32;65501.63;;;-149.14;100.00
58753;BME280;44525;46.052;13.610;2023-03-16T14:41:23;65501.63;;;-149.14;100.00
58753;BME280;44525;46.052;13.610;2023-03-16T14:43:54;65501.63;;;-149.14;100.00
58753;BME280;44525;46.052;13.610;2023-03-16T14:46:26;65501.63;;;-149.14;100.00
58753;BME280;44525;46.052;13.610;2023-03-16T14:51:43;65501.63;;;-149.14;100.00
58753;BME280;44525;46.052;13.610;2023-03-16T14:54:14;65501.63;;;-149.14;100.00
58753;BME280;44525;46.052;13.610;2023-03-16T14:56:41;65501.63;;;-149.14;100.00
58753;BME280;44525;46.052;13.610;2023-03-16T14:59:07;65501.63;;;-149.14;100.00
58753;BME280;44525;46.052;13.610;2023-03-16T15:01:34;65501.63;;;-149.14;100.00
58753;BME280;44525;46.052;13.610;2023-03-16T15:03:59;65501.63;;;-149.14;100.00
58753;BME280;44525;46.052;13.610;2023-03-16T15:06:25;65501.63;;;-149.14;100.00
58753;BME280;44525;46.052;13.610;2023-03-16T15:08:51;65501.63;;;-149.14;100.00
58753;BME280;44525;46.052;13.610;2023-03-16T15:11:18;65501.63;;;-149.14;100.00
58753;BME280;44525;46.052;13.610;2023-03-16T15:13:48;65501.63;;;-149.14;100.00
58753;BME280;44525;46.052;13.610;2023-03-16T15:16:13;65501.63;;;-149.14;100.00
58753;BME280;44525;46.052;13.610;2023-03-16T15:18:40;65501.63;;;-149.14;100.00
58753;BME280;44525;46.052;13.610;2023-03-16T15:21:18;65501.63;;;-149.14;100.00
58753;BME280;44525;46.052;13.610;2023-03-16T15:23:44;65501.63;;;-149.14;100.00
58753;BME280;44525;46.052;13.610;2023-03-16T15:26:12;65501.63;;;-149.14;100.00
58753;BME280;44525;46.052;13.610;2023-03-16T15:28:38;65501.63;;;-149.14;100.00
58753;BME280;44525;46.052;13.610;2023-03-16T15:31:04;65501.63;;;-149.14;100.00
58753;BME280;44525;46.052;13.610;2023-03-16T15:33:30;65501.63;;;-149.14;100.00
58753;BME280;44525;46.052;13.610;2023-03-16T15:35:58;65501.63;;;-149.14;100.00
58753;BME280;44525;46.052;13.610;2023-03-16T15:38:26;65501.63;;;-149.14;100.00
58753;BME280;44525;46.052;13.610;2023-03-16T15:40:52;65501.63;;;-149.14;100.00
58753;BME280;44525;46.052;13.610;2023-03-16T15:43:20;65501.63;;;-149.14;100.00
58753;BME280;44525;46.052;13.610;2023-03-16T15:45:47;65501.63;;;-149.14;100.00
58753;BME280;44525;46.052;13.610;2023-03-16T15:48:14;65501.63;;;-149.14;100.00
58753;BME280;44525;46.052;13.610;2023-03-16T15:50:44;65501.63;;;-149.14;100.00
58753;BME280;44525;46.052;13.610;2023-03-16T15:56:04;65501.63;;;-149.14;100.00
58753;BME280;44525;46.052;13.610;2023-03-16T15:58:33;65501.63;;;-149.14;100.00
58753;BME280;44525;46.052;13.610;2023-03-16T16:01:00;65501.63;;;-149.14;100.00
58753;BME280;44525;46.052;13.610;2023-03-16T16:03:26;65501.63;;;-149.14;100.00
58753;BME280;44525;46.052;13.610;2023-03-16T16:05:52;65501.63;;;-149.14;100.00
58753;BME280;44525;46.052;13.610;2023-03-16T16:08:18;65501.63;;;-149.14;100.00
58753;BME280;44525;46.052;13.610;2023-03-16T16:10:45;65501.63;;;-149.14;100.00
58753;BME280;44525;46.052;13.610;2023-03-16T16:13:21;65501.63;;;-149.14;100.00
58753;BME280;44525;46.052;13.610;2023-03-16T16:15:50;65501.63;;;-149.14;100.00
58753;BME280;44525;46.052;13.610;2023-03-16T16:20:51;65501.63;;;-149.14;100.00
58753;BME280;44525;46.052;13.610;2023-03-16T16:23:16;65501.63;;;-149.14;100.00
58753;BME280;44525;46.052;13.610;2023-03-16T16:25:42;65501.63;;;-149.14;100.00
58753;BME280;44525;46.052;13.610;2023-03-16T16:28:13;65501.63;;;-149.14;100.00
58753;BME280;44525;46.052;13.610;2023-03-16T16:30:39;65501.63;;;-149.14;100.00
58753;BME280;44525;46.052;13.610;2023-03-16T16:33:28;65501.63;;;-149.14;100.00
58753;BME280;44525;46.052;13.610;2023-03-16T16:35:56;65501.63;;;-149.14;100.00
58753;BME280;44525;46.052;13.610;2023-03-16T16:38:22;65501.63;;;-149.14;100.00
58753;BME280;44525;46.052;13.610;2023-03-16T16:40:48;65501.63;;;-149.14;100.00
58753;BME280;44525;46.052;13.610;2023-03-16T16:43:42;65501.63;;;-149.14;100.00
58753;BME280;44525;46.052;13.610;2023-03-16T16:46:17;65501.63;;;-149.14;100.00
58753;BME280;44525;46.052;13.610;2023-03-16T16:51:31;65501.63;;;-149.14;100.00
58753;BME280;44525;46.052;13.610;2023-03-16T16:53:58;65501.63;;;-149.14;100.00
58753;BME280;44525;46.052;13.610;2023-03-16T16:58:52;65501.63;;;-149.14;100.00
58753;BME280;44525;46.052;13.610;2023-03-16T17:01:36;65501.63;;;-149.14;100.00
58753;BME280;44525;46.052;13.610;2023-03-16T17:04:02;65501.63;;;-149.14;100.00
58753;BME280;44525;46.052;13.610;2023-03-16T17:06:28;65501.63;;;-149.14;100.00
58753;BME280;44525;46.052;13.610;2023-03-16T17:08:54;65501.63;;;-149.14;100.00
58753;BME280;44525;46.052;13.610;2023-03-16T17:11:27;65501.63;;;-149.14;100.00
58753;BME280;44525;46.052;13.610;2023-03-16T17:13:56;65501.63;;;-149.14;100.00
58753;BME280;44525;46.052;13.610;2023-03-16T17:16:23;65501.63;;;-149.14;100.00
58753;BME280;44525;46.052;13.610;2023-03-16T17:18:50;65501.63;;;-149.14;100.00
58753;BME280;44525;46.052;13.610;2023-03-16T17:21:19;65501.63;;;-149.14;100.00
58753;BME280;44525;46.052;13.610;2023-03-16T17:23:46;65501.63;;;-149.14;100.00
58753;BME280;44525;46.052;13.610;2023-03-16T17:26:20;65501.63;;;-149.14;100.00
58753;BME280;44525;46.052;13.610;2023-03-16T17:31:25;65501.63;;;-149.14;100.00
58753;BME280;44525;46.052;13.610;2023-03-16T17:33:52;65501.63;;;-149.14;100.00
58753;BME280;44525;46.052;13.610;2023-03-16T17:36:19;65501.63;;;-149.14;100.00
58753;BME280;44525;46.052;13.610;2023-03-16T17:38:44;65501.63;;;-149.14;100.00
58753;BME280;44525;46.052;13.610;2023-03-16T17:41:24;65501.63;;;-149.14;100.00
58753;BME280;44525;46.052;13.610;2023-03-16T17:43:51;65501.63;;;-149.14;100.00
58753;BME280;44525;46.052;13.610;2023-03-16T17:46:20;65501.63;;;-149.14;100.00
58753;BME280;44525;46.052;13.610;2023-03-16T17:48:47;65501.63;;;-149.14;100.00
58753;BME280;44525;46.052;13.610;2023-03-16T17:51:16;65501.63;;;-149.14;100.00
58753;BME280;44525;46.052;13.610;2023-03-16T17:53:43;65501.63;;;-149.14;100.00
58753;BME280;44525;46.052;13.610;2023-03-16T17:56:20;65501.63;;;-149.14;100.00
58753;BME280;44525;46.052;13.610;2023-03-16T17:58:47;65501.63;;;-149.14;100.00
58753;BME280;44525;46.052;13.610;2023-03-16T18:01:14;65501.63;;;-149.14;100.00
58753;BME280;44525;46.052;13.610;2023-03-16T18:03:40;65501.63;;;-149.14;100.00
58753;BME280;44525;46.052;13.610;2023-03-16T18:06:14;65501.63;;;-149.14;100.00
58753;BME280;44525;46.052;13.610;2023-03-16T18:08:41;65501.63;;;-149.14;100.00
58753;BME280;44525;46.052;13.610;2023-03-16T18:11:11;65501.63;;;-149.14;100.00
58753;BME280;44525;46.052;13.610;2023-03-16T18:13:40;65501.63;;;-149.14;100.00
58753;BME280;44525;46.052;13.610;2023-03-16T18:16:06;65501.63;;;-149.14;100.00
58753;BME280;44525;46.052;13.610;2023-03-16T18:18:35;65501.63;;;-149.14;100.00
58753;BME280;44525;46.052;13.610;2023-03-16T18:21:01;65501.63;;;-149.14;100.00
58753;BME280;44525;46.052;13.610;2023-03-16T18:23:34;65501.63;;;-149.14;100.00
58753;BME280;44525;46.052;13.610;2023-03-16T18:26:00;65501.63;;;-149.14;100.00
58753;BME280;44525;46.052;13.610;2023-03-16T18:28:30;65501.63;;;-149.14;100.00
58753;BME280;44525;46.052;13.610;2023-03-16T18:30:57;65501.63;;;-149.14;100.00
58753;BME280;44525;46.052;13.610;2023-03-16T18:35:52;65501.63;;;-149.14;100.00
58753;BME280;44525;46.052;13.610;2023-03-16T18:38:39;65501.63;;;-149.14;100.00
58753;BME280;44525;46.052;13.610;2023-03-16T18:41:14;65501.63;;;-149.14;100.00
58753;BME280;44525;46.052;13.610;2023-03-16T18:43:40;65501.63;;;-149.14;100.00
58753;BME280;44525;46.052;13.610;2023-03-16T18:46:26;65501.63;;;-149.14;100.00
58753;BME280;44525;46.052;13.610;2023-03-16T18:48:55;65501.63;;;-149.14;100.00
58753;BME280;44525;46.052;13.610;2023-03-16T18:51:22;65501.63;;;-149.14;100.00
58753;BME280;44525;46.052;13.610;2023-03-16T18:53:48;65501.63;;;-149.14;100.00
58753;BME280;44525;46.052;13.610;2023-03-16T18:56:20;65501.63;;;-149.14;100.00
58753;BME280;44525;46.052;13.610;2023-03-16T18:58:47;65501.63;;;-149.14;100.00
58753;BME280;44525;46.052;13.610;2023-03-16T19:03:45;65501.63;;;-149.14;100.00
58753;BME280;44525;46.052;13.610;2023-03-16T19:06:19;65501.63;;;-149.14;100.00
58753;BME280;44525;46.052;13.610;2023-03-16T19:08:47;65501.63;;;-149.14;100.00
58753;BME280;44525;46.052;13.610;2023-03-16T19:11:12;65501.63;;;-149.14;100.00
58753;BME280;44525;46.052;13.610;2023-03-16T19:13:38;65501.63;;;-149.14;100.00
58753;BME280;44525;46.052;13.610;2023-03-16T19:16:03;65501.63;;;-149.14;100.00
58753;BME280;44525;46.052;13.610;2023-03-16T19:18:32;65501.63;;;-149.14;100.00
58753;BME280;44525;46.052;13.610;2023-03-16T19:21:14;65501.63;;;-149.14;100.00
58753;BME280;44525;46.052;13.610;2023-03-16T19:23:40;65501.63;;;-149.14;100.00
58753;BME280;44525;46.052;13.610;2023-03-16T19:26:06;65501.63;;;-149.14;100.00
58753;BME280;44525;46.052;13.610;2023-03-16T19:28:37;65501.63;;;-149.14;100.00
58753;BME280;44525;46.052;13.610;2023-03-16T19:33:41;65501.63;;;-149.14;100.00
58753;BME280;44525;46.052;13.610;2023-03-16T19:36:13;65501.63;;;-149.14;100.00
58753;BME280;44525;46.052;13.610;2023-03-16T19:38:40;65501.63;;;-149.14;100.00
58753;BME280;44525;46.052;13.610;2023-03-16T19:41:09;65501.63;;;-149.14;100.00
58753;BME280;44525;46.052;13.610;2023-03-16T19:43:42;65501.63;;;-149.14;100.00
58753;BME280;44525;46.052;13.610;2023-03-16T19:46:13;65501.63;;;-149.14;100.00
58753;BME280;44525;46.052;13.610;2023-03-16T19:48:39;65501.63;;;-149.14;100.00
58753;BME280;44525;46.052;13.610;2023-03-16T19:51:12;65501.63;;;-149.14;100.00